sensor_id;sensor_type;location;lat;lon;timestamp;pressure;altitude;pressure_sealevel;temperature;humidity
84022;BME280;74108;48.636;9.492;2023-12-20T00:01:20;97826.84;;;7.52;75.76
84022;BME280;74108;48.636;9.492;2023-12-20T00:03:46;97829.00;;;7.55;75.26
84022;BME280;74108;48.636;9.492;2023-12-20T00:06:11;97823.78;;;7.55;75.68
84022;BME280;74108;48.636;9.492;2023-12-20T00:08:37;97830.25;;;7.52;75.68
84022;BME280;74108;48.636;9.492;2023-12-20T00:11:02;97830.94;;;7.59;75.85
84022;BME280;74108;48.636;9.492;2023-12-20T00:13:28;97827.84;;;7.62;74.84
84022;BME280;74108;48.636;9.492;2023-12-20T00:15:53;97813.25;;;7.61;74.85
84022;BME280;74108;48.636;9.492;2023-12-20T00:18:18;97804.19;;;7.64;75.48
84022;BME280;74108;48.636;9.492;2023-12-20T00:20:44;97797.13;;;7.64;74.33
84022;BME280;74108;48.636;9.492;2023-12-20T00:23:09;97777.53;;;7.73;74.80
84022;BME280;74108;48.636;9.492;2023-12-20T00:25:35;97799.28;;;7.79;74.59
84022;BME280;74108;48.636;9.492;2023-12-20T00:28:00;97785.44;;;7.78;74.66
84022;BME280;74108;48.636;9.492;2023-12-20T00:30:26;97774.94;;;7.73;75.14
84022;BME280;74108;48.636;9.492;2023-12-20T00:32:51;97776.84;;;7.90;74.15
84022;BME280;74108;48.636;9.492;2023-12-20T00:35:17;97765.81;;;7.88;74.76
84022;BME280;74108;48.636;9.492;2023-12-20T00:37:43;97752.69;;;7.83;74.59
84022;BME280;74108;48.636;9.492;2023-12-20T00:40:09;97742.69;;;7.91;74.22
84022;BME280;74108;48.636;9.492;2023-12-20T00:42:34;97755.47;;;7.93;74.56
84022;BME280;74108;48.636;9.492;2023-12-20T00:45:01;97757.88;;;7.94;74.52
84022;BME280;74108;48.636;9.492;2023-12-20T00:47:27;97750.28;;;7.93;73.44
84022;BME280;74108;48.636;9.492;2023-12-20T00:49:52;97755.16;;;7.89;75.10
84022;BME280;74108;48.636;9.492;2023-12-20T00:52:18;97747.78;;;7.98;74.16
84022;BME280;74108;48.636;9.492;2023-12-20T00:54:44;97744.16;;;7.99;73.99
84022;BME280;74108;48.636;9.492;2023-12-20T00:57:09;97749.22;;;8.05;73.66
84022;BME280;74108;48.636;9.492;2023-12-20T00:59:34;97736.44;;;7.92;74.25
84022;BME280;74108;48.636;9.492;2023-12-20T01:02:00;97737.34;;;7.86;75.79
84022;BME280;74108;48.636;9.492;2023-12-20T01:04:40;97749.56;;;7.97;74.75
84022;BME280;74108;48.636;9.492;2023-12-20T01:07:06;97747.56;;;7.88;74.94
84022;BME280;74108;48.636;9.492;2023-12-20T01:09:31;97753.81;;;7.87;75.55
84022;BME280;74108;48.636;9.492;2023-12-20T01:11:56;97745.56;;;7.78;75.34
84022;BME280;74108;48.636;9.492;2023-12-20T01:14:22;97742.34;;;7.76;75.99
84022;BME280;74108;48.636;9.492;2023-12-20T01:16:47;97749.41;;;7.87;74.95
84022;BME280;74108;48.636;9.492;2023-12-20T01:19:13;97746.00;;;7.75;75.78
84022;BME280;74108;48.636;9.492;2023-12-20T01:21:39;97745.66;;;7.71;75.45
84022;BME280;74108;48.636;9.492;2023-12-20T01:24:05;97752.47;;;7.72;75.54
84022;BME280;74108;48.636;9.492;2023-12-20T01:26:30;97763.22;;;7.64;76.40
84022;BME280;74108;48.636;9.492;2023-12-20T01:28:55;97769.94;;;7.49;77.30
84022;BME280;74108;48.636;9.492;2023-12-20T01:31:21;97771.97;;;7.47;77.52
84022;BME280;74108;48.636;9.492;2023-12-20T01:33:46;97773.09;;;7.39;78.29
84022;BME280;74108;48.636;9.492;2023-12-20T01:36:12;97782.16;;;7.37;78.92
84022;BME280;74108;48.636;9.492;2023-12-20T01:38:37;97778.78;;;7.25;78.89
84022;BME280;74108;48.636;9.492;2023-12-20T01:41:03;97790.66;;;7.21;79.69
84022;BME280;74108;48.636;9.492;2023-12-20T01:43:30;97788.97;;;7.15;80.46
84022;BME280;74108;48.636;9.492;2023-12-20T01:45:58;97791.91;;;7.06;80.60
84022;BME280;74108;48.636;9.492;2023-12-20T01:48:25;97798.44;;;6.97;82.49
84022;BME280;74108;48.636;9.492;2023-12-20T01:50:51;97800.34;;;6.90;82.70
84022;BME280;74108;48.636;9.492;2023-12-20T01:53:17;97809.72;;;6.80;83.74
84022;BME280;74108;48.636;9.492;2023-12-20T01:55:44;97808.91;;;6.79;83.47
84022;BME280;74108;48.636;9.492;2023-12-20T01:58:10;97812.78;;;6.77;84.26
84022;BME280;74108;48.636;9.492;2023-12-20T02:00:36;97805.41;;;6.74;84.73
84022;BME280;74108;48.636;9.492;2023-12-20T02:03:03;97812.13;;;6.63;85.35
84022;BME280;74108;48.636;9.492;2023-12-20T02:05:33;97807.19;;;6.73;84.62
84022;BME280;74108;48.636;9.492;2023-12-20T02:07:59;97802.31;;;6.65;86.17
84022;BME280;74108;48.636;9.492;2023-12-20T02:10:25;97801.38;;;6.60;85.86
84022;BME280;74108;48.636;9.492;2023-12-20T02:12:50;97802.38;;;6.59;85.78
84022;BME280;74108;48.636;9.492;2023-12-20T02:15:16;97789.16;;;6.60;86.42
84022;BME280;74108;48.636;9.492;2023-12-20T02:17:41;97790.03;;;6.54;87.00
84022;BME280;74108;48.636;9.492;2023-12-20T02:20:08;97795.69;;;6.51;87.15
84022;BME280;74108;48.636;9.492;2023-12-20T02:22:33;97787.19;;;6.44;87.37
84022;BME280;74108;48.636;9.492;2023-12-20T02:24:59;97796.28;;;6.53;86.87
84022;BME280;74108;48.636;9.492;2023-12-20T02:27:24;97781.31;;;6.49;87.13
84022;BME280;74108;48.636;9.492;2023-12-20T02:29:50;97789.94;;;6.49;87.12
84022;BME280;74108;48.636;9.492;2023-12-20T02:32:19;97796.78;;;6.44;87.93
84022;BME280;74108;48.636;9.492;2023-12-20T02:34:49;97786.38;;;6.44;87.80
84022;BME280;74108;48.636;9.492;2023-12-20T02:37:15;97773.59;;;6.42;87.95
84022;BME280;74108;48.636;9.492;2023-12-20T02:39:41;97785.38;;;6.45;88.18
84022;BME280;74108;48.636;9.492;2023-12-20T02:42:06;97776.41;;;6.41;88.44
84022;BME280;74108;48.636;9.492;2023-12-20T02:44:31;97785.16;;;6.46;87.57
84022;BME280;74108;48.636;9.492;2023-12-20T02:46:57;97786.25;;;6.38;88.03
84022;BME280;74108;48.636;9.492;2023-12-20T02:49:22;97785.66;;;6.36;88.59
84022;BME280;74108;48.636;9.492;2023-12-20T02:51:47;97782.06;;;6.38;88.71
84022;BME280;74108;48.636;9.492;2023-12-20T02:54:13;97783.97;;;6.30;88.04
84022;BME280;74108;48.636;9.492;2023-12-20T02:56:38;97796.88;;;6.37;88.50
84022;BME280;74108;48.636;9.492;2023-12-20T02:59:04;97785.59;;;6.43;88.91
84022;BME280;74108;48.636;9.492;2023-12-20T03:01:31;97789.06;;;6.37;88.98
84022;BME280;74108;48.636;9.492;2023-12-20T03:03:57;97784.22;;;6.41;88.92
84022;BME280;74108;48.636;9.492;2023-12-20T03:06:22;97791.69;;;6.37;88.78
84022;BME280;74108;48.636;9.492;2023-12-20T03:08:48;97786.91;;;6.34;88.46
84022;BME280;74108;48.636;9.492;2023-12-20T03:11:13;97789.28;;;6.35;88.86
84022;BME280;74108;48.636;9.492;2023-12-20T03:13:38;97776.06;;;6.37;88.18
84022;BME280;74108;48.636;9.492;2023-12-20T03:16:11;97790.53;;;6.33;89.27
84022;BME280;74108;48.636;9.492;2023-12-20T03:18:37;97791.88;;;6.35;88.28
84022;BME280;74108;48.636;9.492;2023-12-20T03:21:04;97789.78;;;6.44;88.71
84022;BME280;74108;48.636;9.492;2023-12-20T03:23:29;97790.78;;;6.43;88.84
84022;BME280;74108;48.636;9.492;2023-12-20T03:25:56;97797.22;;;6.41;88.98
84022;BME280;74108;48.636;9.492;2023-12-20T03:28:22;97802.00;;;6.44;88.60
84022;BME280;74108;48.636;9.492;2023-12-20T03:30:48;97798.59;;;6.43;88.45
84022;BME280;74108;48.636;9.492;2023-12-20T03:33:14;97803.31;;;6.34;88.89
84022;BME280;74108;48.636;9.492;2023-12-20T03:35:39;97800.06;;;6.39;89.48
84022;BME280;74108;48.636;9.492;2023-12-20T03:38:04;97802.09;;;6.37;89.30
84022;BME280;74108;48.636;9.492;2023-12-20T03:40:30;97803.22;;;6.41;88.82
84022;BME280;74108;48.636;9.492;2023-12-20T03:42:55;97810.69;;;6.38;89.23
84022;BME280;74108;48.636;9.492;2023-12-20T03:45:20;97809.53;;;6.33;89.01
84022;BME280;74108;48.636;9.492;2023-12-20T03:47:46;97809.75;;;6.32;89.88
84022;BME280;74108;48.636;9.492;2023-12-20T03:50:13;97818.03;;;6.41;89.70
84022;BME280;74108;48.636;9.492;2023-12-20T03:52:38;97814.28;;;6.36;89.86
84022;BME280;74108;48.636;9.492;2023-12-20T03:55:04;97817.69;;;6.37;89.44
84022;BME280;74108;48.636;9.492;2023-12-20T03:57:29;97827.38;;;6.30;89.22
84022;BME280;74108;48.636;9.492;2023-12-20T03:59:55;97823.75;;;6.31;89.13
84022;BME280;74108;48.636;9.492;2023-12-20T04:02:20;97824.13;;;6.34;89.21
84022;BME280;74108;48.636;9.492;2023-12-20T04:04:46;97824.13;;;6.34;89.13
84022;BME280;74108;48.636;9.492;2023-12-20T04:07:11;97833.16;;;6.32;88.89
84022;BME280;74108;48.636;9.492;2023-12-20T04:09:36;97829.28;;;6.23;89.14
84022;BME280;74108;48.636;9.492;2023-12-20T04:12:02;97835.53;;;6.33;89.03
84022;BME280;74108;48.636;9.492;2023-12-20T04:14:28;97842.19;;;6.29;88.17
84022;BME280;74108;48.636;9.492;2023-12-20T04:16:54;97841.84;;;6.26;87.95
84022;BME280;74108;48.636;9.492;2023-12-20T04:19:19;97846.25;;;6.25;88.58
84022;BME280;74108;48.636;9.492;2023-12-20T04:21:44;97836.13;;;6.17;88.32
84022;BME280;74108;48.636;9.492;2023-12-20T04:24:10;97846.91;;;6.21;88.49
84022;BME280;74108;48.636;9.492;2023-12-20T04:26:35;97841.31;;;6.17;88.79
84022;BME280;74108;48.636;9.492;2023-12-20T04:29:01;97847.09;;;6.19;88.21
84022;BME280;74108;48.636;9.492;2023-12-20T04:31:26;97839.94;;;6.15;88.17
84022;BME280;74108;48.636;9.492;2023-12-20T04:33:52;97846.59;;;6.11;88.59
84022;BME280;74108;48.636;9.492;2023-12-20T04:36:17;97851.16;;;6.15;88.81
84022;BME280;74108;48.636;9.492;2023-12-20T04:38:42;97860.34;;;6.18;88.36
84022;BME280;74108;48.636;9.492;2023-12-20T04:41:08;97860.41;;;6.11;88.88
84022;BME280;74108;48.636;9.492;2023-12-20T04:43:33;97870.25;;;6.09;87.97
84022;BME280;74108;48.636;9.492;2023-12-20T04:45:58;97862.38;;;6.16;88.28
84022;BME280;74108;48.636;9.492;2023-12-20T04:48:24;97863.00;;;6.11;88.46
84022;BME280;74108;48.636;9.492;2023-12-20T04:50:49;97853.41;;;6.12;88.05
84022;BME280;74108;48.636;9.492;2023-12-20T04:53:15;97863.00;;;6.11;88.06
84022;BME280;74108;48.636;9.492;2023-12-20T04:55:43;97869.22;;;6.10;88.20
84022;BME280;74108;48.636;9.492;2023-12-20T04:58:08;97878.03;;;6.09;87.85
84022;BME280;74108;48.636;9.492;2023-12-20T05:00:33;97866.75;;;5.97;88.52
84022;BME280;74108;48.636;9.492;2023-12-20T05:02:59;97877.31;;;6.02;88.55
84022;BME280;74108;48.636;9.492;2023-12-20T05:05:25;97888.88;;;6.06;87.99
84022;BME280;74108;48.636;9.492;2023-12-20T05:07:50;97889.50;;;6.02;88.25
84022;BME280;74108;48.636;9.492;2023-12-20T05:10:15;97892.28;;;6.07;88.53
84022;BME280;74108;48.636;9.492;2023-12-20T05:12:41;97886.09;;;6.01;87.89
84022;BME280;74108;48.636;9.492;2023-12-20T05:15:06;97892.91;;;6.02;87.81
84022;BME280;74108;48.636;9.492;2023-12-20T05:17:32;97886.47;;;5.87;88.81
84022;BME280;74108;48.636;9.492;2023-12-20T05:19:57;97879.19;;;5.95;87.91
84022;BME280;74108;48.636;9.492;2023-12-20T05:22:23;97901.13;;;5.99;88.26
84022;BME280;74108;48.636;9.492;2023-12-20T05:24:48;97903.47;;;6.07;87.62
84022;BME280;74108;48.636;9.492;2023-12-20T05:27:14;97909.16;;;5.98;87.88
84022;BME280;74108;48.636;9.492;2023-12-20T05:29:39;97901.28;;;6.04;87.48
84022;BME280;74108;48.636;9.492;2023-12-20T05:32:05;97903.97;;;5.98;87.57
84022;BME280;74108;48.636;9.492;2023-12-20T05:34:31;97914.94;;;6.00;87.97
84022;BME280;74108;48.636;9.492;2023-12-20T05:36:57;97924.53;;;5.99;88.98
84022;BME280;74108;48.636;9.492;2023-12-20T05:39:23;97920.50;;;6.03;88.02
84022;BME280;74108;48.636;9.492;2023-12-20T05:41:51;97923.91;;;6.04;88.54
84022;BME280;74108;48.636;9.492;2023-12-20T05:44:16;97920.72;;;6.02;88.40
84022;BME280;74108;48.636;9.492;2023-12-20T05:46:42;97925.13;;;6.01;88.32
84022;BME280;74108;48.636;9.492;2023-12-20T05:49:07;97928.16;;;5.98;88.53
84022;BME280;74108;48.636;9.492;2023-12-20T05:51:33;97924.53;;;5.99;88.07
84022;BME280;74108;48.636;9.492;2023-12-20T05:53:58;97926.50;;;6.04;88.22
84022;BME280;74108;48.636;9.492;2023-12-20T05:56:24;97920.56;;;5.97;88.54
84022;BME280;74108;48.636;9.492;2023-12-20T05:58:49;97923.31;;;6.02;87.40
84022;BME280;74108;48.636;9.492;2023-12-20T06:01:15;97937.13;;;6.02;88.34
84022;BME280;74108;48.636;9.492;2023-12-20T06:03:42;97938.50;;;6.05;87.35
84022;BME280;74108;48.636;9.492;2023-12-20T06:06:08;97936.31;;;6.02;87.56
84022;BME280;74108;48.636;9.492;2023-12-20T06:08:34;97940.16;;;5.99;87.52
84022;BME280;74108;48.636;9.492;2023-12-20T06:10:59;97941.09;;;6.05;87.37
84022;BME280;74108;48.636;9.492;2023-12-20T06:13:25;97946.56;;;5.97;88.09
84022;BME280;74108;48.636;9.492;2023-12-20T06:15:51;97957.53;;;5.99;88.19
84022;BME280;74108;48.636;9.492;2023-12-20T06:18:17;97956.19;;;5.96;88.62
84022;BME280;74108;48.636;9.492;2023-12-20T06:20:58;97955.59;;;5.94;89.09
84022;BME280;74108;48.636;9.492;2023-12-20T06:23:51;97954.38;;;5.97;87.89
84022;BME280;74108;48.636;9.492;2023-12-20T06:26:17;97963.34;;;6.01;87.75
84022;BME280;74108;48.636;9.492;2023-12-20T06:28:42;97968.56;;;6.01;88.18
84022;BME280;74108;48.636;9.492;2023-12-20T06:31:10;97960.44;;;5.91;88.39
84022;BME280;74108;48.636;9.492;2023-12-20T06:33:52;97976.56;;;5.99;88.14
84022;BME280;74108;48.636;9.492;2023-12-20T06:36:45;97952.63;;;5.91;88.92
84022;BME280;74108;48.636;9.492;2023-12-20T06:39:30;97962.50;;;6.07;87.52
84022;BME280;74108;48.636;9.492;2023-12-20T06:41:56;97961.59;;;5.95;88.14
84022;BME280;74108;48.636;9.492;2023-12-20T06:44:21;97968.00;;;5.92;88.31
84022;BME280;74108;48.636;9.492;2023-12-20T06:46:46;97980.19;;;5.98;88.44
84022;BME280;74108;48.636;9.492;2023-12-20T06:49:12;97979.16;;;5.99;88.97
84022;BME280;74108;48.636;9.492;2023-12-20T06:51:37;97981.81;;;5.93;89.44
84022;BME280;74108;48.636;9.492;2023-12-20T06:54:03;97982.81;;;5.92;88.69
84022;BME280;74108;48.636;9.492;2023-12-20T06:56:28;97982.97;;;5.97;89.08
84022;BME280;74108;48.636;9.492;2023-12-20T06:58:54;97990.00;;;5.96;89.17
84022;BME280;74108;48.636;9.492;2023-12-20T07:01:19;97992.44;;;5.91;88.86
84022;BME280;74108;48.636;9.492;2023-12-20T07:03:45;97995.38;;;5.95;88.78
84022;BME280;74108;48.636;9.492;2023-12-20T07:06:10;97998.00;;;5.95;88.83
84022;BME280;74108;48.636;9.492;2023-12-20T07:08:35;97992.66;;;5.83;89.72
84022;BME280;74108;48.636;9.492;2023-12-20T07:11:01;98000.66;;;5.88;89.43
84022;BME280;74108;48.636;9.492;2023-12-20T07:13:26;98000.00;;;5.93;88.99
84022;BME280;74108;48.636;9.492;2023-12-20T07:15:52;98006.19;;;5.92;88.96
84022;BME280;74108;48.636;9.492;2023-12-20T07:18:17;98012.38;;;5.97;88.71
84022;BME280;74108;48.636;9.492;2023-12-20T07:20:43;98005.38;;;5.98;88.80
84022;BME280;74108;48.636;9.492;2023-12-20T07:23:08;98023.31;;;6.06;88.06
84022;BME280;74108;48.636;9.492;2023-12-20T07:25:34;98022.72;;;6.04;88.21
84022;BME280;74108;48.636;9.492;2023-12-20T07:27:59;98016.13;;;6.01;87.85
84022;BME280;74108;48.636;9.492;2023-12-20T07:30:25;98025.78;;;6.01;88.70
84022;BME280;74108;48.636;9.492;2023-12-20T07:32:50;98018.50;;;6.09;88.57
84022;BME280;74108;48.636;9.492;2023-12-20T07:35:16;98025.06;;;6.12;88.42
84022;BME280;74108;48.636;9.492;2023-12-20T07:37:41;98027.50;;;6.07;88.69
84022;BME280;74108;48.636;9.492;2023-12-20T07:40:07;98034.25;;;6.14;88.22
84022;BME280;74108;48.636;9.492;2023-12-20T07:42:33;98033.63;;;6.19;86.86
84022;BME280;74108;48.636;9.492;2023-12-20T07:44:58;98034.03;;;6.16;87.64
84022;BME280;74108;48.636;9.492;2023-12-20T07:47:24;98032.03;;;6.18;87.71
84022;BME280;74108;48.636;9.492;2023-12-20T07:49:51;98038.66;;;6.14;88.62
84022;BME280;74108;48.636;9.492;2023-12-20T07:52:19;98040.22;;;6.21;87.99
84022;BME280;74108;48.636;9.492;2023-12-20T07:54:45;98043.22;;;6.18;87.41
84022;BME280;74108;48.636;9.492;2023-12-20T07:57:30;98049.25;;;6.19;87.55
84022;BME280;74108;48.636;9.492;2023-12-20T07:59:56;98049.59;;;6.22;87.80
84022;BME280;74108;48.636;9.492;2023-12-20T08:02:21;98042.72;;;6.10;88.50
84022;BME280;74108;48.636;9.492;2023-12-20T08:04:46;98049.00;;;6.20;88.59
84022;BME280;74108;48.636;9.492;2023-12-20T08:07:12;98045.50;;;6.08;87.90
84022;BME280;74108;48.636;9.492;2023-12-20T08:09:37;98066.00;;;6.23;88.55
84022;BME280;74108;48.636;9.492;2023-12-20T08:12:03;98080.13;;;6.33;88.18
84022;BME280;74108;48.636;9.492;2023-12-20T08:14:28;98077.00;;;6.25;88.55
84022;BME280;74108;48.636;9.492;2023-12-20T08:16:54;98085.31;;;6.33;88.92
84022;BME280;74108;48.636;9.492;2023-12-20T08:19:19;98081.94;;;6.33;88.74
84022;BME280;74108;48.636;9.492;2023-12-20T08:21:45;98078.97;;;6.29;87.45
84022;BME280;74108;48.636;9.492;2023-12-20T08:24:10;98082.31;;;6.36;87.91
84022;BME280;74108;48.636;9.492;2023-12-20T08:26:35;98078.31;;;6.34;88.89
84022;BME280;74108;48.636;9.492;2023-12-20T08:29:01;98087.28;;;6.38;88.57
84022;BME280;74108;48.636;9.492;2023-12-20T08:31:26;98095.84;;;6.45;88.23
84022;BME280;74108;48.636;9.492;2023-12-20T08:33:52;98085.91;;;6.35;87.97
84022;BME280;74108;48.636;9.492;2023-12-20T08:36:19;98094.31;;;6.38;88.02
84022;BME280;74108;48.636;9.492;2023-12-20T08:38:46;98091.91;;;6.36;88.42
84022;BME280;74108;48.636;9.492;2023-12-20T08:41:11;98091.34;;;6.34;88.40
84022;BME280;74108;48.636;9.492;2023-12-20T08:43:37;98090.00;;;6.25;89.21
84022;BME280;74108;48.636;9.492;2023-12-20T08:46:04;98096.06;;;6.19;88.66
84022;BME280;74108;48.636;9.492;2023-12-20T08:48:29;98094.22;;;6.26;88.42
84022;BME280;74108;48.636;9.492;2023-12-20T08:50:55;98093.81;;;6.22;87.88
84022;BME280;74108;48.636;9.492;2023-12-20T08:53:20;98102.22;;;6.24;87.88
84022;BME280;74108;48.636;9.492;2023-12-20T08:55:47;98094.00;;;6.27;86.85
84022;BME280;74108;48.636;9.492;2023-12-20T08:58:13;98103.00;;;6.25;87.95
84022;BME280;74108;48.636;9.492;2023-12-20T09:00:38;98099.41;;;6.26;88.84
84022;BME280;74108;48.636;9.492;2023-12-20T09:03:04;98102.91;;;6.38;87.93
84022;BME280;74108;48.636;9.492;2023-12-20T09:05:29;98096.19;;;6.24;88.13
84022;BME280;74108;48.636;9.492;2023-12-20T09:07:55;98107.59;;;6.29;87.82
84022;BME280;74108;48.636;9.492;2023-12-20T09:10:21;98107.34;;;6.31;88.04
84022;BME280;74108;48.636;9.492;2023-12-20T09:12:49;98100.50;;;6.12;87.58
84022;BME280;74108;48.636;9.492;2023-12-20T09:15:14;98104.50;;;6.14;87.92
84022;BME280;74108;48.636;9.492;2023-12-20T09:17:40;98098.28;;;6.15;87.81
84022;BME280;74108;48.636;9.492;2023-12-20T09:20:06;98094.09;;;6.08;87.75
84022;BME280;74108;48.636;9.492;2023-12-20T09:22:33;98100.13;;;6.08;87.99
84022;BME280;74108;48.636;9.492;2023-12-20T09:24:59;98096.00;;;6.01;88.52
84022;BME280;74108;48.636;9.492;2023-12-20T09:27:25;98100.16;;;6.02;88.06
84022;BME280;74108;48.636;9.492;2023-12-20T09:29:50;98098.72;;;6.06;87.91
84022;BME280;74108;48.636;9.492;2023-12-20T09:32:16;98109.72;;;6.08;88.00
84022;BME280;74108;48.636;9.492;2023-12-20T09:34:41;98111.31;;;6.09;87.54
84022;BME280;74108;48.636;9.492;2023-12-20T09:37:07;98111.38;;;6.02;87.98
84022;BME280;74108;48.636;9.492;2023-12-20T09:39:33;98119.13;;;6.09;87.98
84022;BME280;74108;48.636;9.492;2023-12-20T09:42:03;98112.38;;;6.01;88.82
84022;BME280;74108;48.636;9.492;2023-12-20T09:44:29;98104.66;;;5.88;89.33
84022;BME280;74108;48.636;9.492;2023-12-20T09:46:57;98102.72;;;6.08;88.88
84022;BME280;74108;48.636;9.492;2023-12-20T09:49:23;98111.50;;;6.14;87.95
84022;BME280;74108;48.636;9.492;2023-12-20T09:51:50;98104.22;;;6.22;88.45
84022;BME280;74108;48.636;9.492;2023-12-20T09:54:17;98108.34;;;6.36;87.85
84022;BME280;74108;48.636;9.492;2023-12-20T09:56:43;98105.31;;;6.64;86.74
84022;BME280;74108;48.636;9.492;2023-12-20T09:59:09;98106.47;;;6.68;86.28
84022;BME280;74108;48.636;9.492;2023-12-20T10:01:35;98113.56;;;6.79;84.57
84022;BME280;74108;48.636;9.492;2023-12-20T10:04:01;98117.44;;;6.77;84.46
84022;BME280;74108;48.636;9.492;2023-12-20T10:06:32;98108.03;;;6.94;82.85
84022;BME280;74108;48.636;9.492;2023-12-20T10:08:57;98116.72;;;6.88;83.63
84022;BME280;74108;48.636;9.492;2023-12-20T10:11:22;98106.06;;;6.89;84.23
84022;BME280;74108;48.636;9.492;2023-12-20T10:13:48;98099.22;;;6.70;81.75
84022;BME280;74108;48.636;9.492;2023-12-20T10:16:13;98106.31;;;6.63;82.73
84022;BME280;74108;48.636;9.492;2023-12-20T10:18:39;98099.88;;;6.66;80.71
84022;BME280;74108;48.636;9.492;2023-12-20T10:21:06;98111.72;;;6.62;81.25
84022;BME280;74108;48.636;9.492;2023-12-20T10:23:31;98115.72;;;6.64;79.01
84022;BME280;74108;48.636;9.492;2023-12-20T10:26:00;98109.94;;;6.62;78.49
84022;BME280;74108;48.636;9.492;2023-12-20T10:28:26;98114.09;;;6.70;81.56
84022;BME280;74108;48.636;9.492;2023-12-20T10:30:55;98112.00;;;6.78;80.61
84022;BME280;74108;48.636;9.492;2023-12-20T10:33:27;98108.69;;;6.89;78.21
84022;BME280;74108;48.636;9.492;2023-12-20T10:35:54;98089.56;;;6.95;78.24
84022;BME280;74108;48.636;9.492;2023-12-20T10:38:19;98099.66;;;6.92;77.26
84022;BME280;74108;48.636;9.492;2023-12-20T10:40:45;98093.47;;;6.86;79.67
84022;BME280;74108;48.636;9.492;2023-12-20T10:43:12;98085.63;;;6.68;77.99
84022;BME280;74108;48.636;9.492;2023-12-20T10:45:39;98093.44;;;6.68;77.40
84022;BME280;74108;48.636;9.492;2023-12-20T10:48:05;98098.72;;;6.62;77.25
84022;BME280;74108;48.636;9.492;2023-12-20T10:50:31;98083.16;;;6.55;76.22
84022;BME280;74108;48.636;9.492;2023-12-20T10:52:57;98085.13;;;6.60;77.11
84022;BME280;74108;48.636;9.492;2023-12-20T10:55:23;98090.75;;;6.57;77.73
84022;BME280;74108;48.636;9.492;2023-12-20T10:57:51;98087.81;;;6.71;76.60
84022;BME280;74108;48.636;9.492;2023-12-20T11:00:18;98099.09;;;6.65;78.09
84022;BME280;74108;48.636;9.492;2023-12-20T11:02:44;98086.34;;;6.57;77.00
84022;BME280;74108;48.636;9.492;2023-12-20T11:07:53;98080.28;;;6.63;75.17
84022;BME280;74108;48.636;9.492;2023-12-20T11:10:26;98080.56;;;6.55;76.38
84022;BME280;74108;48.636;9.492;2023-12-20T11:15:29;98075.59;;;6.47;78.54
84022;BME280;74108;48.636;9.492;2023-12-20T11:17:55;98071.88;;;6.61;77.05
84022;BME280;74108;48.636;9.492;2023-12-20T11:20:41;98072.16;;;6.53;76.95
84022;BME280;74108;48.636;9.492;2023-12-20T11:23:07;98072.06;;;6.42;74.62
84022;BME280;74108;48.636;9.492;2023-12-20T11:25:54;98073.88;;;6.41;75.09
84022;BME280;74108;48.636;9.492;2023-12-20T11:28:23;98079.59;;;6.50;72.44
84022;BME280;74108;48.636;9.492;2023-12-20T11:30:52;98078.19;;;6.54;72.68
84022;BME280;74108;48.636;9.492;2023-12-20T11:33:21;98074.44;;;6.43;71.02
84022;BME280;74108;48.636;9.492;2023-12-20T11:35:48;98074.94;;;6.58;71.86
84022;BME280;74108;48.636;9.492;2023-12-20T11:38:13;98072.69;;;6.62;71.56
84022;BME280;74108;48.636;9.492;2023-12-20T11:40:41;98069.13;;;6.56;69.87
84022;BME280;74108;48.636;9.492;2023-12-20T11:43:07;98063.13;;;6.56;69.63
84022;BME280;74108;48.636;9.492;2023-12-20T11:45:33;98062.34;;;6.55;69.48
84022;BME280;74108;48.636;9.492;2023-12-20T11:48:01;98044.53;;;6.52;69.09
84022;BME280;74108;48.636;9.492;2023-12-20T11:50:28;98056.09;;;6.56;69.95
84022;BME280;74108;48.636;9.492;2023-12-20T11:52:55;98057.84;;;6.44;70.09
84022;BME280;74108;48.636;9.492;2023-12-20T11:55:23;98058.19;;;6.48;70.33
84022;BME280;74108;48.636;9.492;2023-12-20T11:57:51;98064.25;;;6.42;68.95
84022;BME280;74108;48.636;9.492;2023-12-20T12:00:17;98059.41;;;6.45;70.26
84022;BME280;74108;48.636;9.492;2023-12-20T12:02:55;98055.44;;;6.43;70.18
84022;BME280;74108;48.636;9.492;2023-12-20T12:05:21;98043.09;;;6.56;70.04
84022;BME280;74108;48.636;9.492;2023-12-20T12:07:47;98048.09;;;6.58;69.64
84022;BME280;74108;48.636;9.492;2023-12-20T12:10:12;98055.84;;;6.64;72.21
84022;BME280;74108;48.636;9.492;2023-12-20T12:12:38;98052.88;;;6.61;70.61
84022;BME280;74108;48.636;9.492;2023-12-20T12:15:04;98050.06;;;6.62;70.20
84022;BME280;74108;48.636;9.492;2023-12-20T12:17:30;98035.09;;;6.58;70.10
84022;BME280;74108;48.636;9.492;2023-12-20T12:20:05;98039.41;;;6.64;71.05
84022;BME280;74108;48.636;9.492;2023-12-20T12:22:31;98033.84;;;6.60;70.90
84022;BME280;74108;48.636;9.492;2023-12-20T12:24:59;98045.69;;;6.56;71.37
84022;BME280;74108;48.636;9.492;2023-12-20T12:27:34;98048.09;;;6.58;71.05
84022;BME280;74108;48.636;9.492;2023-12-20T12:30:04;98035.97;;;6.45;70.96
84022;BME280;74108;48.636;9.492;2023-12-20T12:32:32;98042.16;;;6.51;70.09
84022;BME280;74108;48.636;9.492;2023-12-20T12:34:57;98039.38;;;6.46;70.49
84022;BME280;74108;48.636;9.492;2023-12-20T12:37:23;98048.16;;;6.51;70.37
84022;BME280;74108;48.636;9.492;2023-12-20T12:39:54;98037.81;;;6.45;72.75
84022;BME280;74108;48.636;9.492;2023-12-20T12:42:20;98034.47;;;6.38;70.73
84022;BME280;74108;48.636;9.492;2023-12-20T12:44:46;98034.66;;;6.36;69.28
84022;BME280;74108;48.636;9.492;2023-12-20T12:47:12;98030.69;;;6.33;71.71
84022;BME280;74108;48.636;9.492;2023-12-20T12:49:37;98045.34;;;6.28;69.50
84022;BME280;74108;48.636;9.492;2023-12-20T12:52:03;98045.03;;;6.18;69.38
84022;BME280;74108;48.636;9.492;2023-12-20T12:54:28;98056.66;;;6.15;70.40
84022;BME280;74108;48.636;9.492;2023-12-20T12:56:54;98048.31;;;6.07;72.78
84022;BME280;74108;48.636;9.492;2023-12-20T12:59:19;98046.56;;;6.01;71.55
84022;BME280;74108;48.636;9.492;2023-12-20T13:01:44;98048.09;;;6.08;72.14
84022;BME280;74108;48.636;9.492;2023-12-20T13:04:10;98046.06;;;6.10;70.90
84022;BME280;74108;48.636;9.492;2023-12-20T13:06:38;98043.28;;;6.12;72.59
84022;BME280;74108;48.636;9.492;2023-12-20T13:09:04;98038.88;;;6.12;71.66
84022;BME280;74108;48.636;9.492;2023-12-20T13:11:34;98041.91;;;6.09;72.23